Ms Signal — SFWL — position and weather

sailwx.info

Track history (hours):
 
Tides and Currents Weather Stations Pressure Air Temp Water Temp Dewpoint Dewpoint Depression Visibility Wind Speed Wind Dir Waves Ship Positions

Ms Signal

Last reported at 2014-Oct-23 13:33 UTC. Time now 2014-Oct-24 23:17 UTC.
Position N 59°21' E 018°08'.

Length 16 m.

Type: Diving. MMSI: 265648340.

Date/timePositionNaut miles runAvg speedWind from/ knotsBaromVisibWave heightAir tempDewpointWater temp
2014-Oct-23 13:33N 59°21' E 018°08'3 2.8
2014-Oct-23 12:31N 59°18' E 018°05'1 0.8
2014-Oct-23 10:33N 59°20' E 018°03'1 0.6
2014-Oct-23 09:28N 59°19' E 018°05'2 2.5
2014-Oct-23 08:33N 59°21' E 018°08'0 0.2
2014-Oct-23 07:06N 59°21' E 018°08'3 4.4
2014-Oct-23 06:29N 59°18' E 018°05'3 0.1
2014-Oct-22 10:31N 59°20' E 018°09'1 0.4
2014-Oct-22 08:13N 59°21' E 018°08'0 0.2
2014-Oct-22 07:18N 59°21' E 018°08'0 0.0
2014-Oct-22 06:24N 59°21' E 018°08'0 0.4
2014-Oct-22 05:24N 59°21' E 018°07'2 0.1
2014-Oct-21 10:16N 59°20' E 018°11'2 2.9
2014-Oct-21 09:30N 59°19' E 018°07'1 0.7
2014-Oct-21 08:30N 59°19' E 018°06'0 0.3
2014-Oct-21 07:12N 59°20' E 018°05'1 1.7
2014-Oct-21 06:26N 59°18' E 018°05'3 0.2
2014-Oct-20 13:34N 59°20' E 018°09'4 3.7
2014-Oct-20 12:33N 59°19' E 018°02'1 0.7
2014-Oct-20 10:33N 59°18' E 018°03'2 2.4
2014-Oct-20 09:32N 59°19' E 018°08'1 0.5
2014-Oct-20 06:29N 59°21' E 018°08'0 0.4
2014-Oct-20 05:32N 59°21' E 018°07'  
2014-Oct-15 21:33N 59°21' E 018°07'0 0.0
2014-Oct-14 22:24N 59°22' E 018°07'0 0.1
2014-Oct-14 21:33N 59°22' E 018°07'0 0.1
2014-Oct-14 20:15N 59°22' E 018°07'0 0.0
2014-Oct-14 19:33N 59°22' E 018°07'0 0.1
2014-Oct-14 18:28N 59°22' E 018°07'0 0.0
2014-Oct-14 17:28N 59°22' E 018°07'  
Track history (hours):
 
Tides and Currents Weather Stations Pressure Air Temp Water Temp Dewpoint Dewpoint Depression Visibility Wind Speed Wind Dir Waves Ship Positions

Ms Signal

Last reported at 2014-Oct-23 13:33 UTC. Time now 2014-Oct-24 23:17 UTC.
Position N 59°21' E 018°08'.

Length 16 m.

Type: Diving. MMSI: 265648340.

Date/timePositionNaut miles runAvg speedWind from/ knotsBaromVisibWave heightAir tempDewpointWater temp
2014-Oct-23 13:33N 59°21' E 018°08'3 2.8
2014-Oct-23 12:31N 59°18' E 018°05'1 0.8
2014-Oct-23 10:33N 59°20' E 018°03'1 0.6
2014-Oct-23 09:28N 59°19' E 018°05'2 2.5
2014-Oct-23 08:33N 59°21' E 018°08'0 0.2
2014-Oct-23 07:06N 59°21' E 018°08'3 4.4
2014-Oct-23 06:29N 59°18' E 018°05'3 0.1
2014-Oct-22 10:31N 59°20' E 018°09'1 0.4
2014-Oct-22 08:13N 59°21' E 018°08'0 0.2
2014-Oct-22 07:18N 59°21' E 018°08'0 0.0
2014-Oct-22 06:24N 59°21' E 018°08'0 0.4
2014-Oct-22 05:24N 59°21' E 018°07'2 0.1
2014-Oct-21 10:16N 59°20' E 018°11'2 2.9
2014-Oct-21 09:30N 59°19' E 018°07'1 0.7
2014-Oct-21 08:30N 59°19' E 018°06'0 0.3
2014-Oct-21 07:12N 59°20' E 018°05'1 1.7
2014-Oct-21 06:26N 59°18' E 018°05'3 0.2
2014-Oct-20 13:34N 59°20' E 018°09'4 3.7
2014-Oct-20 12:33N 59°19' E 018°02'1 0.7
2014-Oct-20 10:33N 59°18' E 018°03'2 2.4
2014-Oct-20 09:32N 59°19' E 018°08'1 0.5
2014-Oct-20 06:29N 59°21' E 018°08'0 0.4
2014-Oct-20 05:32N 59°21' E 018°07'  
2014-Oct-15 21:33N 59°21' E 018°07'0 0.0
2014-Oct-14 22:24N 59°22' E 018°07'0 0.1
2014-Oct-14 21:33N 59°22' E 018°07'0 0.1
2014-Oct-14 20:15N 59°22' E 018°07'0 0.0
2014-Oct-14 19:33N 59°22' E 018°07'0 0.1
2014-Oct-14 18:28N 59°22' E 018°07'0 0.0
2014-Oct-14 17:28N 59°22' E 018°07'  

Dump ship's entire track history